Está en la página 1de 4

Temp. HR Td Vel Viento Dir.Viento Patm Lluvia Rad.

Solar
Fecha Hora C % C (Km/h) (mb) (mm) (w/m2)
2/10/2013 0:00 25.4 83 22.3 6.4 ENE 1005.7 0 0
2/10/2013 0:10 25.4 83 22.3 4.8 E 1005.7 0 0
2/10/2013 0:20 25.3 83 22.2 3.2 ENE 1005.7 0 0
2/10/2013 0:30 25.3 84 22.4 3.2 E 1005.7 0 0
2/10/2013 0:40 25.3 84 22.4 1.6 E 1005.7 0 0
2/10/2013 0:50 25.3 84 22.4 3.2 E 1005.6 0 0
2/10/2013 1:00 25.3 85 22.6 3.2 ENE 1005.5 0 0
2/10/2013 1:10 25.3 85 22.6 3.2 ENE 1005.2 0 0
2/10/2013 1:20 25.4 85 22.7 4.8 NE 1005.4 0 0
2/10/2013 1:30 25.7 78 21.5 8 NE 1005.4 0 0
2/10/2013 1:40 26 75 21.2 6.4 NE 1005.3 0 0
2/10/2013 1:50 26.1 73 20.8 6.4 NE 1005.3 0 0
2/10/2013 2:00 26 72 20.6 8 NNE 1005.3 0 0
2/10/2013 2:10 25.9 72 20.5 8 NE 1005.3 0 0
2/10/2013 2:20 25.7 73 20.5 8 NNE 1005.4 0 0
2/10/2013 2:30 25.6 73 20.4 9.7 NNE 1005.4 0 0
2/10/2013 2:40 25.5 74 20.5 8 NNE 1005.4 0 0
2/10/2013 2:50 25.4 74 20.4 9.7 NNE 1005.5 0 0
2/10/2013 3:00 25.3 75 20.6 4.8 NNE 1005.5 0 0
2/10/2013 3:10 25.1 76 20.6 6.4 NNE 1005.5 0 0
2/10/2013 3:20 24.9 76 20.4 8 NNE 1005.4 0 0
2/10/2013 3:30 24.8 77 20.5 6.4 NNE 1005.4 0 0
2/10/2013 3:40 24.8 77 20.5 8 NNE 1005.4 0 0
2/10/2013 3:50 24.8 77 20.5 8 N 1005.5 0 0
2/10/2013 4:00 24.8 77 20.5 6.4 N 1005.5 0 0
2/10/2013 4:10 24.7 77 20.4 8 N 1005.5 0 0
2/10/2013 4:20 24.6 78 20.5 8 N 1005.5 0 0
2/10/2013 4:30 24.5 78 20.4 4.8 N 1005.6 0 0
2/10/2013 4:40 24.4 78 20.3 8 N 1005.6 0 0
2/10/2013 4:50 24.4 78 20.4 4.8 N 1005.5 0 0
2/10/2013 5:00 24.4 77 20.1 6.4 N 1005.6 0 0
2/10/2013 5:10 24.3 77 20 6.4 N 1005.5 0 0
2/10/2013 5:20 24.2 78 20.1 6.4 N 1005.5 0 0
2/10/2013 5:30 24.2 78 20.1 8 NNE 1005.8 0 0
2/10/2013 5:40 24.1 78 20 6.4 NNE 1005.7 0 0
2/10/2013 5:50 24 79 20.1 6.4 N 1005.8 0 0
2/10/2013 6:00 23.9 79 20.1 6.4 NNE 1005.7 0 0
2/10/2013 6:10 23.9 79 20 6.4 NNE 1005.7 0 0
2/10/2013 6:20 23.8 80 20.1 6.4 NNE 1005.8 0 0
2/10/2013 6:30 23.7 80 20 4.8 NE 1006 0 7
2/10/2013 6:40 23.6 80 20 1.6 ENE 1006 0 14
2/10/2013 6:50 23.6 80 19.9 3.2 NE 1006.1 0 27
2/10/2013 7:00 23.7 80 20 3.2 ENE 1006 0 39
2/10/2013 7:10 24.3 78 20.2 3.2 N 1006 0 91
2/10/2013 7:20 24.9 76 20.4 4.8 NE 1006 0 122
2/10/2013 7:30 25.3 74 20.4 6.4 NNE 1006 0 159
2/10/2013 7:40 25.7 71 20.1 4.8 N 1006.1 0 168
2/10/2013 7:50 25.5 72 20.1 6.4 N 1006.2 0 181
2/10/2013 8:00 25.2 72 19.8 4.8 NNE 1006.3 0 87
2/10/2013 8:10 25.1 73 19.9 6.4 NNE 1006.4 0 94
2/10/2013 8:20 25.1 73 19.9 4.8 NE 1006.3 0 111
2/10/2013 8:30 26 71 20.3 6.4 N 1006.3 0 268
Temp. HR Td Vel Viento Dir.Viento Patm Lluvia Rad.Solar
Fecha Hora C % C (Km/h) (mb) (mm) (w/m2)
2/10/2013 8:40 26.6 69 20.4 8 N 1006.4 0 347
2/10/2013 8:50 27 67 20.3 8 NNE 1006.3 0 374
2/10/2013 9:00 27.2 66 20.3 6.4 NNE 1006.3 0 404
2/10/2013 9:10 27.3 66 20.4 8 N 1006.3 0 435
2/10/2013 9:20 27.7 64 20.3 8 N 1006.3 0 466
2/10/2013 9:30 28 63 20.3 8 N 1006.3 0 496
2/10/2013 9:40 28.2 62 20.2 8 NNE 1006.2 0 525
2/10/2013 9:50 28.5 62 20.5 8 N 1006.3 0 555
2/10/2013 10:00 28.8 61 20.5 8 N 1006.3 0 582
2/10/2013 10:10 28.6 61 20.4 8 NNE 1006.3 0 610
2/10/2013 10:20 29.6 59 20.7 6.4 NNW 1006.3 0 637
2/10/2013 10:30 29.6 59 20.7 6.4 NW 1006.4 0 657
2/10/2013 10:40 30.1 58 20.9 8 N 1006.3 0 688
2/10/2013 10:50 30.3 57 20.9 6.4 NW 1006.3 0 732
2/10/2013 11:00 30.6 56 20.8 11.3 N 1006.2 0 772
2/10/2013 11:10 30.4 56 20.7 6.4 NE 1006.1 0 759
2/10/2013 11:20 30.3 57 20.9 6.4 NNE 1006 0 765
2/10/2013 11:30 30.7 56 20.9 8 NE 1005.8 0 778
2/10/2013 11:40 31.1 56 21.2 9.7 N 1005.8 0 802
2/10/2013 11:50 31.3 54 20.9 8 N 1005.7 0 814
2/10/2013 12:00 31.6 52 20.5 9.7 N 1005.5 0 831
2/10/2013 12:10 31.7 53 20.9 4.8 NNW 1005.4 0 838
2/10/2013 12:20 31.6 53 20.8 8 NE 1005.3 0 848
2/10/2013 12:30 31.9 53 21.2 8 N 1005.2 0 861
2/10/2013 12:40 31.7 53 20.9 8 N 1005.1 0 863
2/10/2013 12:50 31.8 53 21 6.4 NNE 1005 0 869
2/10/2013 13:00 32.1 54 21.6 4.8 ENE 1004.9 0 875
2/10/2013 13:10 32.8 51 21.3 8 N 1004.7 0 898
2/10/2013 13:20 32.5 51 21.1 8 NE 1004.7 0 685
2/10/2013 13:30 33.1 51 21.6 6.4 NE 1004.5 0 1011
2/10/2013 13:40 33.1 51 21.6 9.7 NE 1004.3 0 837
2/10/2013 13:50 32.4 52 21.3 8 NE 1004 0 747
2/10/2013 14:00 33.4 51 21.9 8 N 1003.9 0 906
2/10/2013 14:10 33.3 50 21.5 11.3 NNE 1003.7 0 897
2/10/2013 14:20 33 50 21.2 8 NNE 1003.5 0 560
2/10/2013 14:30 33.2 51 21.7 8 N 1003.3 0 878
2/10/2013 14:40 33.3 49 21.1 9.7 N 1003.2 0 888
2/10/2013 14:50 32.9 50 21.1 8 NNE 1002.8 0 880
2/10/2013 15:00 33.1 48 20.6 11.3 NE 1002.5 0 839
2/10/2013 15:10 33.6 47 20.7 9.7 N 1002.4 0 826
2/10/2013 15:20 33.9 45 20.3 9.7 N 1002.3 0 800
2/10/2013 15:30 33.8 46 20.6 9.7 NE 1001.9 0 738
2/10/2013 15:40 33.9 46 20.6 9.7 NNE 1002 0 785
2/10/2013 15:50 33.9 45 20.3 9.7 N 1001.8 0 791
2/10/2013 16:00 33.8 44 19.8 9.7 NW 1001.5 0 724
2/10/2013 16:10 32.7 48 20.3 9.7 NNE 1001.7 0 154
2/10/2013 16:20 32.3 48 19.9 9.7 NE 1001.7 0 131
2/10/2013 16:30 32.2 48 19.8 8 N 1001.9 0 101
2/10/2013 16:40 32 49 19.9 4.8 NNE 1002.2 0 79
2/10/2013 16:50 30.7 58 21.5 12.9 NE 1002.1 0 89
2/10/2013 17:00 30.2 60 21.6 11.3 E 1002 0 137
2/10/2013 17:10 30.2 59 21.3 8 ESE 1002.3 0 82
Temp. HR Td Vel Viento Dir.Viento Patm Lluvia Rad.Solar
Fecha Hora C % C (Km/h) (mb) (mm) (w/m2)
2/10/2013 17:20 28.9 63 21.1 8 SSE 1002.4 0 47
2/10/2013 17:30 28.6 63 20.9 6.4 SSE 1002.4 0 17
2/10/2013 17:40 27.8 67 21.1 8 SSE 1003 0 7
2/10/2013 17:50 22 82 18.8 16.1 ESE 1002.9 8 0
2/10/2013 18:00 22.1 92 20.7 19.3 WSW 1004.4 6 0
2/10/2013 18:10 21 93 19.8 22.5 W 1005.5 25.6 0
2/10/2013 18:20 20.2 93 19 14.5 W 1006.9 15.2 0
2/10/2013 18:30 19.8 95 19 9.7 S 1006.2 10.8 0
2/10/2013 18:40 19.6 95 18.7 11.3 S 1005.3 4 0
2/10/2013 18:50 19.6 95 18.8 6.4 SSE 1004.8 1.8 0
2/10/2013 19:00 19.8 96 19.1 9.7 E 1004.7 0.8 0
2/10/2013 19:10 19.8 96 19.1 8 ESE 1004.1 0.2 0
2/10/2013 19:20 19.8 96 19.2 3.2 E 1003.9 0 0
2/10/2013 19:30 20.2 96 19.6 4.8 ENE 1003.8 0 0
2/10/2013 19:40 20.3 95 19.5 8 NNE 1004 0 1
2/10/2013 19:50 20.3 95 19.5 9.7 NE 1004.1 0 0
2/10/2013 20:00 20.5 95 19.7 4.8 E 1004.5 0 0
2/10/2013 20:10 20.3 95 19.5 6.4 ESE 1004.9 0 0
2/10/2013 20:20 20.3 94 19.3 8 E 1004.9 0 0
2/10/2013 20:30 20.3 94 19.3 6.4 E 1004.6 0 0
2/10/2013 20:40 20.3 93 19.1 4.8 ENE 1004.5 0 0
2/10/2013 20:50 20.2 93 19 4.8 ESE 1004.3 0 0
2/10/2013 21:00 20.4 94 19.4 9.7 E 1004.2 0 0
2/10/2013 21:10 20.6 94 19.6 4.8 ESE 1004.2 0 0
2/10/2013 21:20 20.8 94 19.8 3.2 ENE 1004.6 0 0
2/10/2013 21:30 21 95 20.2 1.6 NNW 1004.6 0 0
2/10/2013 21:40 20.9 95 20.1 3.2 NNW 1004.5 0 0
2/10/2013 21:50 21 95 20.2 4.8 NNE 1004.7 0 0
2/10/2013 22:00 20.9 95 20.1 3.2 N 1004.9 0 0
2/10/2013 22:10 21.1 95 20.2 0 N 1005 0 0
2/10/2013 22:20 21.2 96 20.6 1.6 N 1005.5 0 0
2/10/2013 22:30 21.3 96 20.7 4.8 NE 1005.6 0 0
2/10/2013 22:40 21.5 96 20.8 4.8 N 1005.5 0 0
2/10/2013 22:50 21.6 96 20.9 4.8 N 1005.5 0 0
2/10/2013 23:00 21.7 96 21.1 3.2 NNE 1005.3 0 0
2/10/2013 23:10 21.8 96 21.1 1.6 NNE 1005.1 0 0
2/10/2013 23:20 21.8 96 21.2 3.2 NNE 1004.9 0 0
2/10/2013 23:30 21.8 96 21.2 1.6 NNE 1004.8 0 0
2/10/2013 23:40 21.8 96 21.1 0 NNE 1004.5 0 0
2/10/2013 23:50 21.7 96 21 1.6 NNE 1004.6 0 0
2/11/2013 0:00 21.6 97 21.1 1.6 E 1004.7 0 0
2/11/2013 0:10 21.7 97 21.2 0 --- 1004.8 0 0
2/11/2013 0:20 21.7 97 21.2 1.6 E 1005.2 0 0
2/11/2013 0:30 21.5 97 21 8 S 1005.5 0 0
2/11/2013 0:40 21.3 96 20.7 6.4 S 1005.4 0 0
2/11/2013 0:50 21.3 96 20.6 4.8 S 1005.5 0 0
2/11/2013 1:00 21.2 96 20.6 6.4 S 1005.5 0 0
2/11/2013 1:10 21.1 95 20.3 8 SSW 1005.6 0 0
2/11/2013 1:20 21.2 94 20.2 9.7 SSW 1005.9 0 0
2/11/2013 1:30 21.1 94 20.1 9.7 SSW 1005.8 0 0
2/11/2013 1:40 20.9 94 19.9 6.4 S 1005.7 0 0
2/11/2013 1:50 20.8 94 19.8 8 S 1005.7 0 0
Temp. HR Td Vel Viento Dir.Viento Patm Lluvia Rad.Solar
Fecha Hora C % C (Km/h) (mb) (mm) (w/m2)
2/11/2013 2:00 20.7 94 19.7 8 SSW 1005.6 0 0
2/11/2013 2:10 20.6 94 19.6 8 SSW 1005.4 0 0
2/11/2013 2:20 20.6 93 19.4 4.8 SSW 1005.4 0 0
2/11/2013 2:30 20.6 93 19.4 3.2 S 1005.4 0 0
2/11/2013 2:40 20.6 93 19.4 1.6 SE 1005.4 0 0
2/11/2013 2:50 20.6 93 19.4 3.2 W 1005.6 0 0
2/11/2013 3:00 20.7 93 19.5 3.2 W 1005.6 0 0
2/11/2013 3:10 20.6 93 19.4 3.2 WNW 1005.5 0 0
2/11/2013 3:20 20.5 93 19.3 4.8 W 1005.5 0 0
2/11/2013 3:30 20.6 93 19.4 4.8 WSW 1005.3 0.2 0
2/11/2013 3:40 20.5 93 19.3 6.4 S 1004.9 0 0
2/11/2013 3:50 20.5 94 19.5 3.2 SW 1004.7 0 0
2/11/2013 4:00 20.4 95 19.6 1.6 SSW 1004.7 0 0
2/11/2013 4:10 20.5 95 19.7 1.6 WSW 1004.8 0 0
2/11/2013 4:20 20.4 95 19.6 1.6 WSW 1004.8 0 0
2/11/2013 4:30 20.5 95 19.7 1.6 WSW 1005 0 0
2/11/2013 4:40 20.6 95 19.7 1.6 WSW 1004.9 0 0
2/11/2013 4:50 20.6 95 19.8 1.6 W 1005 0 0
2/11/2013 5:00 20.5 95 19.7 3.2 WSW 1004.8 0 0
2/11/2013 5:10 20.4 94 19.4 1.6 W 1004.8 0 0
2/11/2013 5:20 20.4 94 19.4 1.6 NW 1004.7 0 0
2/11/2013 5:30 20.5 94 19.5 1.6 W 1004.9 0 0
2/11/2013 5:40 20.5 94 19.5 3.2 WNW 1005.2 0 0
2/11/2013 5:50 20.4 92 19 4.8 W 1005.3 0 0
2/11/2013 6:00 20.4 90 18.7 6.4 W 1005.4 0 0
2/11/2013 6:10 20.2 89 18.3 6.4 SW 1004.9 0.2 0
2/11/2013 6:20 19.6 92 18.2 4.8 SW 1004.7 0.4 0
2/11/2013 6:30 19.3 95 18.5 1.6 NNE 1004.5 0.2 0
2/11/2013 6:40 19.3 95 18.5 1.6 NE 1004.5 0 0
2/11/2013 6:50 19.3 95 18.5 3.2 ENE 1004.4 0 6
2/11/2013 7:00 19.5 96 18.8 0 NW 1004.4 0 12
2/11/2013 7:10 19.3 96 18.7 4.8 E 1004.2 0 14
2/11/2013 7:20 19.3 96 18.6 4.8 ENE 1004.1 0 22
2/11/2013 7:30 19.4 96 18.8 3.2 E 1004.2 0 46
2/11/2013 7:40 19.7 96 19 1.6 SSW 1004.2 0 68
2/11/2013 7:50 19.9 96 19.2 4.8 SW 1004.8 0 81
2/11/2013 8:00 20.1 96 19.4 4.8 SW 1005 0 147
2/11/2013 8:10 20.1 96 19.4 3.2 SSW 1005.3 0 86
2/11/2013 8:20 20.2 96 19.6 4.8 SSW 1005.4 0 113
2/11/2013 8:30 20.4 96 19.8 4.8 SSW 1005.7 0 173
2/11/2013 8:40 20.9 95 20.1 4.8 SSE 1005.8 0 237
2/11/2013 8:50 21.9 90 20.2 4.8 S 1005.9 0 350